Time;durP1;ratioP1;P1;durP2;ratioP2;P2;SDS_P1;SDS_P2;PMS_P1;PMS_P2;Temp;Humidity;BMP_temperature;BMP_pressure;BME280_temperature;BME280_humidity;BME280_pressure;Samples;Min_cycle;Max_cycle;Signal;HPM_P1;HPM_P2
2021/10/31 00:02:13;;;;;;;11.70;5.60;;;;;;;10.52;97.88;100454.28;4989026;28;20030;-81
2021/10/31 00:04:39;;;;;;;7.65;4.97;;;;;;;10.49;97.86;100458.97;5000254;28;20073;-79
2021/10/31 00:07:05;;;;;;;12.45;5.60;;;;;;;10.50;98.07;100463.22;4992460;28;20023;-81
2021/10/31 00:09:30;;;;;;;10.57;5.50;;;;;;;10.49;97.77;100457.22;4990627;28;20045;-82
2021/10/31 00:11:56;;;;;;;10.35;5.15;;;;;;;10.52;97.85;100462.06;4988453;28;20219;-80
2021/10/31 00:14:23;;;;;;;9.18;4.88;;;;;;;10.52;97.47;100466.44;4988808;28;20053;-81
2021/10/31 00:16:49;;;;;;;9.00;4.85;;;;;;;10.48;97.96;100459.97;4984081;28;20037;-81
2021/10/31 00:19:15;;;;;;;8.88;4.78;;;;;;;10.43;97.32;100459.66;4983878;28;20034;-81
2021/10/31 00:21:40;;;;;;;8.25;5.00;;;;;;;10.48;97.33;100465.97;4989521;28;20030;-80
2021/10/31 00:24:06;;;;;;;14.52;4.93;;;;;;;10.47;96.84;100466.13;4987983;28;20103;-81
2021/10/31 00:26:32;;;;;;;9.85;4.30;;;;;;;10.47;96.90;100466.94;4966958;28;20106;-81
2021/10/31 00:28:58;;;;;;;7.03;3.95;;;;;;;10.48;95.69;100467.75;4966822;28;20034;-79
2021/10/31 00:31:23;;;;;;;10.10;4.32;;;;;;;10.41;96.48;100471.97;4987465;28;20026;-81
2021/10/31 00:33:49;;;;;;;9.07;3.92;;;;;;;10.34;96.84;100479.59;4983691;28;20038;-79
2021/10/31 00:36:14;;;;;;;13.50;4.22;;;;;;;10.39;96.53;100471.31;4980576;28;20030;-79
2021/10/31 00:38:40;;;;;;;14.65;4.93;;;;;;;10.38;96.27;100472.28;4988174;28;20399;-79
2021/10/31 00:41:05;;;;;;;6.22;3.72;;;;;;;10.35;96.56;100470.03;4987863;28;20271;-80
2021/10/31 00:43:31;;;;;;;9.55;3.75;;;;;;;10.31;96.62;100467.75;4996890;28;20034;-81
2021/10/31 00:45:57;;;;;;;9.57;3.50;;;;;;;10.27;96.79;100474.19;4986844;28;20041;-82
2021/10/31 00:48:22;;;;;;;9.55;3.80;;;;;;;10.26;96.80;100475.16;4984675;28;20038;-81
2021/10/31 00:50:51;;;;;;;10.93;4.32;;;;;;;10.23;96.71;100474.69;4990564;28;20041;-81
2021/10/31 00:53:17;;;;;;;9.30;3.92;;;;;;;10.22;96.69;100471.28;4974337;28;20042;-83
2021/10/31 00:55:43;;;;;;;7.45;3.90;;;;;;;10.19;96.65;100469.03;4986151;28;20034;-81
2021/10/31 00:58:12;;;;;;;6.68;3.63;;;;;;;10.20;97.07;100467.22;4979727;28;20049;-80
2021/10/31 01:00:39;;;;;;;6.35;3.35;;;;;;;10.18;96.84;100462.22;4983475;28;20307;-81
2021/10/31 01:03:04;;;;;;;9.50;3.92;;;;;;;10.16;97.15;100468.53;4981232;28;20034;-82
2021/10/31 01:05:38;;;;;;;11.23;4.07;;;;;;;10.18;96.59;100467.41;4985444;28;20073;-82
2021/10/31 01:08:15;;;;;;;12.68;3.58;;;;;;;10.17;96.35;100464.97;4984750;28;20038;-80
2021/10/31 01:11:09;;;;;;;7.18;3.60;;;;;;;10.14;96.20;100464.31;4986791;28;20058;-80
2021/10/31 01:13:59;;;;;;;14.57;4.28;;;;;;;10.12;95.84;100466.25;4992811;28;20124;-84
2021/10/31 01:16:38;;;;;;;11.80;4.10;;;;;;;10.08;96.38;100464.16;5010283;28;20049;-81
2021/10/31 01:19:51;;;;;;;9.27;3.55;;;;;;;10.07;96.59;100470.28;4974267;28;20034;-82
2021/10/31 01:22:41;;;;;;;10.18;3.50;;;;;;;10.08;96.15;100466.75;4973781;28;20038;-81
2021/10/31 01:25:23;;;;;;;7.43;3.30;;;;;;;10.04;96.37;100468.84;4997913;28;20145;-82
2021/10/31 01:28:03;;;;;;;7.40;3.75;;;;;;;10.03;96.21;100474.19;4991471;28;20474;-82
2021/10/31 01:31:01;;;;;;;14.45;3.58;;;;;;;10.02;96.29;100477.72;4980660;28;20038;-83
2021/10/31 01:33:32;;;;;;;12.15;3.72;;;;;;;10.02;96.33;100477.72;4989211;28;20091;-81
2021/10/31 01:36:11;;;;;;;6.43;3.38;;;;;;;10.01;96.38;100478.72;4972475;28;20110;-81
2021/10/31 01:39:02;;;;;;;10.13;4.00;;;;;;;9.96;96.13;100484.34;4967119;28;20045;-83
2021/10/31 01:41:57;;;;;;;12.38;4.03;;;;;;;9.93;96.37;100476.94;4972984;28;20042;-82
2021/10/31 01:44:51;;;;;;;5.88;3.28;;;;;;;9.92;96.44;100477.88;4989848;28;20390;-81
2021/10/31 01:47:47;;;;;;;10.60;3.60;;;;;;;9.91;96.13;100478.88;4985870;28;20039;-82
2021/10/31 01:50:37;;;;;;;6.20;3.88;;;;;;;9.98;95.72;100476.44;4972915;28;20394;-83
2021/10/31 01:53:26;;;;;;;9.70;3.40;;;;;;;9.89;95.60;100484.19;4981043;28;20038;-82
2021/10/31 01:56:14;;;;;;;7.97;3.60;;;;;;;9.84;95.58;100493.41;4980590;28;20037;-81
2021/10/31 01:58:46;;;;;;;8.25;3.45;;;;;;;9.79;96.01;100499.06;4997540;28;20041;-81
2021/10/31 02:01:15;;;;;;;10.63;4.10;;;;;;;9.80;95.60;100503.28;5005164;28;20027;-81
2021/10/31 02:03:42;;;;;;;10.68;3.42;;;;;;;9.75;96.28;100502.94;4984882;28;20130;-81
2021/10/31 02:06:09;;;;;;;8.15;3.25;;;;;;;9.71;96.08;100502.44;4989620;28;20050;-81
2021/10/31 02:08:35;;;;;;;7.10;3.90;;;;;;;9.69;96.30;100501.78;4989404;28;20030;-81
2021/10/31 02:11:02;;;;;;;4.93;3.40;;;;;;;9.67;96.27;100503.72;4984782;28;20514;-80
2021/10/31 02:13:29;;;;;;;8.73;3.10;;;;;;;9.64;96.50;100501.44;4987952;28;20030;-80
2021/10/31 02:15:56;;;;;;;8.02;3.88;;;;;;;9.62;96.73;100495.59;4985706;28;20081;-80
2021/10/31 02:18:24;;;;;;;5.75;3.33;;;;;;;9.60;96.52;100496.75;4986159;28;20406;-81
2021/10/31 02:20:54;;;;;;;10.00;4.20;;;;;;;9.58;96.61;100496.88;4981850;28;20554;-82
2021/10/31 02:23:20;;;;;;;9.93;3.75;;;;;;;9.58;96.47;100498.69;4975765;28;20038;-83
2021/10/31 02:25:46;;;;;;;11.82;4.05;;;;;;;9.58;96.58;100499.47;4986628;28;20038;-83
2021/10/31 02:28:12;;;;;;;7.88;3.25;;;;;;;9.58;96.59;100506.44;4977231;28;20113;-83
2021/10/31 02:30:38;;;;;;;5.88;3.30;;;;;;;9.57;96.42;100507.41;4985465;28;20121;-82
2021/10/31 02:33:03;;;;;;;6.00;3.03;;;;;;;9.57;96.54;100507.41;4985587;28;20066;-82
2021/10/31 02:35:29;;;;;;;7.32;3.50;;;;;;;9.54;96.46;100506.75;4987750;28;20022;-83
2021/10/31 02:37:54;;;;;;;7.15;3.30;;;;;;;9.52;96.67;100505.28;4970239;28;20509;-82
2021/10/31 02:40:22;;;;;;;12.50;4.13;;;;;;;9.51;96.77;100514.84;4964202;28;20034;-82
2021/10/31 02:42:48;;;;;;;8.18;3.63;;;;;;;9.51;96.59;100506.25;4977938;28;20026;-82
2021/10/31 02:45:14;;;;;;;7.35;3.25;;;;;;;9.48;96.79;100509.97;4980455;28;20502;-82
2021/10/31 02:47:42;;;;;;;6.15;3.20;;;;;;;9.49;97.07;100509.00;4982020;28;20117;-82
2021/10/31 02:50:15;;;;;;;8.93;3.67;;;;;;;9.51;96.87;100496.72;4985409;28;20491;-83
2021/10/31 02:53:11;;;;;;;8.32;3.47;;;;;;;9.50;96.60;100504.63;4981627;28;21008;-83
2021/10/31 02:55:46;;;;;;;9.50;3.90;;;;;;;9.50;96.75;100508.03;4977826;28;20077;-83
2021/10/31 02:58:25;;;;;;;6.88;3.17;;;;;;;9.49;96.69;100513.34;4991756;28;20471;-82
2021/10/31 03:00:58;;;;;;;7.65;3.95;;;;;;;9.47;96.93;100510.13;4968851;28;20049;-85
2021/10/31 03:03:24;;;;;;;6.00;3.83;;;;;;;9.46;96.85;100505.91;4966954;28;20033;-82
2021/10/31 03:05:53;;;;;;;5.85;3.78;;;;;;;9.44;96.66;100493.13;4983014;28;20057;-82
2021/10/31 03:08:20;;;;;;;10.98;4.03;;;;;;;9.42;97.07;100489.88;4981484;28;20030;-82
2021/10/31 03:11:01;;;;;;;10.07;4.53;;;;;;;9.44;97.13;100498.31;4993227;28;20037;-83
2021/10/31 03:13:27;;;;;;;8.43;4.13;;;;;;;9.42;96.86;100502.81;4975892;28;20302;-83
2021/10/31 03:15:53;;;;;;;7.55;4.00;;;;;;;9.42;97.05;100495.06;4973170;28;20034;-82
2021/10/31 03:18:19;;;;;;;6.13;3.85;;;;;;;9.40;96.99;100486.66;4994680;28;20091;-82
2021/10/31 03:20:45;;;;;;;8.70;3.60;;;;;;;9.38;96.98;100485.16;4978155;28;20510;-82
2021/10/31 03:23:12;;;;;;;10.70;3.80;;;;;;;9.38;97.26;100483.41;5009328;28;20084;-83
2021/10/31 03:25:37;;;;;;;6.53;4.18;;;;;;;9.36;97.33;100480.13;4979949;28;20464;-82
2021/10/31 03:28:03;;;;;;;7.68;3.90;;;;;;;9.37;97.19;100489.53;4972131;28;20121;-82
2021/10/31 03:30:30;;;;;;;9.70;4.40;;;;;;;9.35;97.26;100492.28;4986656;28;20474;-82
2021/10/31 03:32:55;;;;;;;8.90;4.35;;;;;;;9.35;97.47;100489.69;4966880;28;20404;-82
2021/10/31 03:35:21;;;;;;;7.85;4.55;;;;;;;9.35;97.15;100494.06;4960252;28;20030;-83
2021/10/31 03:37:47;;;;;;;8.65;4.57;;;;;;;9.34;97.38;100497.59;4982942;28;20041;-82
2021/10/31 03:40:12;;;;;;;8.27;4.70;;;;;;;9.34;97.29;100487.25;4975405;28;20045;-82
2021/10/31 03:42:38;;;;;;;6.97;4.22;;;;;;;9.34;97.44;100487.25;4982422;28;20035;-82
2021/10/31 03:45:09;;;;;;;6.78;4.60;;;;;;;9.32;97.37;100484.84;4985102;28;20031;-82
2021/10/31 03:47:37;;;;;;;7.70;4.05;;;;;;;9.30;97.18;100489.34;4989209;28;20081;-82
2021/10/31 03:50:03;;;;;;;6.50;4.68;;;;;;;9.32;97.43;100484.84;4985110;28;20045;-82
2021/10/31 03:52:28;;;;;;;10.40;4.97;;;;;;;9.30;97.26;100491.13;4961981;28;20027;-83
2021/10/31 03:54:54;;;;;;;6.78;4.10;;;;;;;9.31;97.45;100490.16;4986265;28;20031;-82
2021/10/31 03:57:19;;;;;;;10.73;5.55;;;;;;;9.31;97.20;100483.19;4988621;28;20030;-80
2021/10/31 03:59:45;;;;;;;8.27;4.88;;;;;;;9.29;97.12;100484.34;4985793;28;20038;-80
2021/10/31 04:02:10;;;;;;;8.55;4.90;;;;;;;9.27;96.95;100481.91;4993370;28;20038;-80
2021/10/31 04:04:36;;;;;;;9.70;5.10;;;;;;;9.26;97.39;100477.69;4992907;28;20040;-81
2021/10/31 04:07:01;;;;;;;8.00;5.05;;;;;;;9.38;96.80;100478.22;4989258;28;20494;-82
2021/10/31 04:09:27;;;;;;;8.63;5.28;;;;;;;9.31;96.96;100478.03;4967692;28;20037;-81
2021/10/31 04:11:53;;;;;;;12.60;6.03;;;;;;;9.31;96.76;100483.19;4985912;28;20070;-80
2021/10/31 04:14:18;;;;;;;8.93;5.75;;;;;;;9.28;97.08;100477.53;4984510;28;20056;-81
2021/10/31 04:16:44;;;;;;;9.82;5.72;;;;;;;9.26;97.33;100477.69;4983364;28;20035;-81
2021/10/31 04:19:10;;;;;;;13.43;6.32;;;;;;;9.24;97.18;100471.84;4985721;28;20031;-81
2021/10/31 04:21:35;;;;;;;10.43;5.25;;;;;;;9.22;97.50;100473.78;4985603;28;20509;-82
2021/10/31 04:24:01;;;;;;;7.65;5.63;;;;;;;9.22;97.44;100468.59;4988336;28;20042;-81
2021/10/31 04:26:26;;;;;;;9.57;6.00;;;;;;;9.22;97.34;100467.81;4988272;28;20037;-80
2021/10/31 04:28:52;;;;;;;11.98;6.35;;;;;;;9.22;97.22;100465.22;4984414;28;20041;-80
2021/10/31 04:31:17;;;;;;;12.05;7.05;;;;;;;9.22;96.81;100460.84;4986836;28;20030;-80
2021/10/31 04:33:43;;;;;;;12.63;7.63;;;;;;;9.24;96.72;100456.31;4973918;28;20526;-80
2021/10/31 04:36:08;;;;;;;12.88;7.82;;;;;;;9.20;96.69;100461.97;4980754;28;20418;-80
2021/10/31 04:38:34;;;;;;;16.50;8.00;;;;;;;9.19;97.07;100463.72;4977487;28;20034;-81
2021/10/31 04:41:00;;;;;;;11.32;8.18;;;;;;;9.17;97.07;100457.91;4966516;28;20228;-80
2021/10/31 04:43:27;;;;;;;12.45;7.93;;;;;;;9.14;96.92;100461.63;4982270;28;20030;-81
2021/10/31 04:45:53;;;;;;;10.18;6.93;;;;;;;9.12;97.30;100453.22;4958475;28;20038;-80
2021/10/31 04:48:21;;;;;;;15.77;9.10;;;;;;;9.11;97.30;100461.13;4984281;28;20034;-80
2021/10/31 04:50:47;;;;;;;15.98;8.38;;;;;;;9.07;97.42;100465.78;4973571;28;20102;-79
2021/10/31 04:53:13;;;;;;;15.10;10.20;;;;;;;9.19;97.25;100455.16;4986814;28;20082;-79
2021/10/31 04:55:40;;;;;;;14.23;9.05;;;;;;;9.13;97.29;100454.00;4974348;28;20091;-81
2021/10/31 04:58:07;;;;;;;15.13;8.98;;;;;;;9.15;97.26;100459.84;4988079;28;20045;-81
2021/10/31 05:00:33;;;;;;;15.15;9.35;;;;;;;9.10;97.45;100447.38;4971555;28;20035;-82
2021/10/31 05:02:58;;;;;;;14.70;9.48;;;;;;;9.10;97.50;100444.00;5017036;28;20104;-82
2021/10/31 05:05:24;;;;;;;17.65;10.88;;;;;;;9.10;97.26;100452.56;4984916;28;20045;-81
2021/10/31 05:07:52;;;;;;;15.35;9.07;;;;;;;9.09;97.72;100450.91;4983208;28;20133;-82
2021/10/31 05:10:18;;;;;;;14.02;9.18;;;;;;;9.10;97.33;100447.38;4960327;28;20038;-83
2021/10/31 05:12:45;;;;;;;13.07;9.00;;;;;;;9.09;97.51;100453.50;4984912;28;20034;-82
2021/10/31 05:15:11;;;;;;;15.20;8.30;;;;;;;9.08;97.27;100446.72;4988581;28;20494;-82
2021/10/31 05:17:37;;;;;;;14.00;8.00;;;;;;;9.19;97.39;100443.03;4974808;28;20034;-83
2021/10/31 05:20:03;;;;;;;12.88;7.82;;;;;;;9.30;97.11;100441.97;4975763;28;20458;-83
2021/10/31 05:22:29;;;;;;;13.43;7.43;;;;;;;9.23;96.79;100438.38;4972505;28;20054;-81
2021/10/31 05:24:54;;;;;;;11.23;6.93;;;;;;;9.18;96.82;100441.44;4969217;28;20042;-82
2021/10/31 05:27:20;;;;;;;10.88;7.10;;;;;;;9.13;97.08;100436.72;4982280;28;20357;-82
2021/10/31 05:29:45;;;;;;;12.20;7.43;;;;;;;9.09;97.28;100438.00;4983132;28;20434;-81
2021/10/31 05:32:11;;;;;;;9.77;6.03;;;;;;;9.06;97.38;100435.72;4970041;28;20178;-81
2021/10/31 05:34:36;;;;;;;9.60;6.78;;;;;;;9.08;97.44;100436.38;4975518;28;20046;-81
2021/10/31 05:37:02;;;;;;;15.70;7.05;;;;;;;9.05;97.22;100430.72;4970312;28;20342;-80
2021/10/31 05:39:28;;;;;;;8.93;6.47;;;;;;;9.04;97.35;100429.06;4984132;28;20030;-81
2021/10/31 05:41:53;;;;;;;9.48;5.85;;;;;;;9.01;97.53;100422.44;4985993;28;20031;-82
2021/10/31 05:44:19;;;;;;;11.85;5.90;;;;;;;8.99;97.41;100411.44;4979430;28;20124;-81
2021/10/31 05:46:44;;;;;;;8.38;6.13;;;;;;;8.99;97.26;100411.44;4967239;28;20410;-82
2021/10/31 05:49:10;;;;;;;9.70;5.55;;;;;;;8.97;97.15;100405.63;4967999;28;20034;-81
2021/10/31 05:51:35;;;;;;;7.25;5.10;;;;;;;8.96;97.16;100403.97;5017621;28;20216;-80
2021/10/31 05:54:01;;;;;;;13.60;6.13;;;;;;;8.96;97.07;100401.41;4969104;28;20042;-80
2021/10/31 05:56:27;;;;;;;8.38;6.10;;;;;;;8.96;96.53;100406.56;4989748;28;20042;-81
2021/10/31 05:58:52;;;;;;;10.65;6.20;;;;;;;9.02;95.95;100398.19;4977212;28;20041;-83
2021/10/31 06:01:18;;;;;;;12.23;6.55;;;;;;;9.08;95.26;100400.16;4982104;28;20031;-82
2021/10/31 06:03:44;;;;;;;9.52;5.75;;;;;;;8.94;95.30;100403.34;4979930;28;20475;-83
2021/10/31 06:06:09;;;;;;;10.60;6.25;;;;;;;8.92;96.01;100403.47;4969817;28;20113;-82
2021/10/31 06:08:35;;;;;;;9.30;6.28;;;;;;;8.92;96.09;100394.91;4973406;28;20399;-81
2021/10/31 06:11:00;;;;;;;8.50;5.97;;;;;;;9.01;95.78;100400.94;4976136;28;20053;-81
2021/10/31 06:13:26;;;;;;;9.65;6.55;;;;;;;8.92;95.70;100394.91;4988436;28;20371;-80
2021/10/31 06:15:52;;;;;;;8.60;5.65;;;;;;;8.84;95.88;100393.13;4967744;28;20411;-81
2021/10/31 06:18:18;;;;;;;12.32;6.70;;;;;;;8.84;96.50;100392.31;4976678;28;20548;-80
2021/10/31 06:20:44;;;;;;;9.95;6.97;;;;;;;8.82;96.51;100399.41;5056165;28;20043;-81
2021/10/31 06:23:10;;;;;;;8.98;6.47;;;;;;;8.81;96.55;100390.81;4984780;28;20043;-80
2021/10/31 06:25:35;;;;;;;8.75;6.28;;;;;;;8.82;96.99;100386.47;4987360;28;20133;-80
2021/10/31 06:28:01;;;;;;;9.15;6.55;;;;;;;8.82;96.88;100387.28;4988043;28;20038;-80
2021/10/31 06:30:26;;;;;;;10.68;6.15;;;;;;;8.82;97.13;100382.13;4967858;28;20042;-79
2021/10/31 06:32:52;;;;;;;8.18;5.47;;;;;;;8.81;97.02;100379.69;4984914;28;20038;-81
2021/10/31 06:35:18;;;;;;;10.38;5.30;;;;;;;8.80;96.90;100371.13;4990490;28;20535;-79
2021/10/31 06:37:44;;;;;;;9.18;5.40;;;;;;;8.77;97.08;100364.47;4991793;28;20073;-80
2021/10/31 06:40:10;;;;;;;11.63;6.07;;;;;;;8.79;96.55;100355.75;4969410;28;20039;-81
2021/10/31 06:42:36;;;;;;;11.00;5.85;;;;;;;8.89;95.47;100357.25;4973611;28;20895;-81
2021/10/31 06:45:02;;;;;;;8.35;5.57;;;;;;;9.02;94.48;100361.97;4984685;28;20038;-83
2021/10/31 06:47:28;;;;;;;11.07;5.60;;;;;;;8.98;94.11;100368.44;4985504;28;20026;-81
2021/10/31 06:49:53;;;;;;;11.57;6.07;;;;;;;8.96;94.88;100367.78;4985672;28;20554;-82
2021/10/31 06:52:19;;;;;;;9.65;5.68;;;;;;;9.01;95.03;100362.97;4976562;28;20038;-85
2021/10/31 06:54:45;;;;;;;9.18;6.28;;;;;;;8.83;95.54;100357.88;4968094;28;20033;-80
2021/10/31 06:57:10;;;;;;;12.05;6.35;;;;;;;8.91;95.99;100357.09;4992277;28;20567;-83
2021/10/31 06:59:36;;;;;;;9.55;6.05;;;;;;;8.88;95.45;100347.06;4968169;28;20046;-82
2021/10/31 07:02:02;;;;;;;12.65;6.40;;;;;;;8.87;95.48;100345.44;4988770;28;20030;-82
2021/10/31 07:04:29;;;;;;;8.30;5.85;;;;;;;8.86;95.39;100339.47;4975184;28;20046;-82
2021/10/31 07:06:55;;;;;;;12.38;5.95;;;;;;;8.89;95.18;100336.59;4989598;28;20047;-81
2021/10/31 07:09:20;;;;;;;12.38;6.18;;;;;;;8.88;95.90;100334.94;4979106;28;20239;-82
2021/10/31 07:11:46;;;;;;;14.40;6.45;;;;;;;8.95;95.36;100345.50;4989303;28;20034;-78
2021/10/31 07:14:11;;;;;;;13.13;6.47;;;;;;;8.98;95.19;100334.00;4989937;28;20039;-77
2021/10/31 07:16:37;;;;;;;10.13;6.00;;;;;;;8.93;95.13;100337.88;4997625;28;20034;-78
2021/10/31 07:19:03;;;;;;;15.38;6.10;;;;;;;8.95;95.18;100341.13;4982766;28;20061;-79
2021/10/31 07:21:29;;;;;;;11.93;6.00;;;;;;;8.88;95.18;100334.16;4983763;28;20034;-79
2021/10/31 07:23:55;;;;;;;17.58;6.88;;;;;;;8.90;95.32;100327.84;4983767;28;20471;-78
2021/10/31 07:26:20;;;;;;;12.75;6.95;;;;;;;8.94;95.04;100336.91;4995685;28;20030;-79
2021/10/31 07:28:46;;;;;;;12.32;7.28;;;;;;;8.96;95.10;100334.16;4979701;28;20033;-77
2021/10/31 07:31:13;;;;;;;11.43;6.78;;;;;;;9.04;94.96;100334.22;4987995;28;20422;-79
2021/10/31 07:33:39;;;;;;;13.77;7.70;;;;;;;9.04;94.84;100333.38;4990784;28;20521;-79
2021/10/31 07:36:05;;;;;;;12.90;7.00;;;;;;;9.03;94.63;100326.59;4989360;28;20063;-77
2021/10/31 07:38:32;;;;;;;12.52;7.93;;;;;;;9.08;94.79;100322.56;4980011;28;20026;-78
2021/10/31 07:40:57;;;;;;;16.08;9.18;;;;;;;9.07;94.60;100322.72;5001189;28;20094;-76
2021/10/31 07:43:22;;;;;;;18.30;9.50;;;;;;;9.08;94.51;100322.56;4991962;28;20026;-79
2021/10/31 07:45:49;;;;;;;16.92;8.25;;;;;;;9.20;94.44;100324.88;4986216;28;20065;-79
2021/10/31 07:48:14;;;;;;;13.95;8.50;;;;;;;9.18;94.28;100317.25;4991096;28;20038;-84
2021/10/31 07:50:40;;;;;;;13.05;8.00;;;;;;;9.22;94.15;100322.94;4980827;28;20034;-76
2021/10/31 07:53:09;;;;;;;15.02;8.38;;;;;;;9.22;94.09;100310.00;4992177;28;20508;-79
2021/10/31 07:55:35;;;;;;;13.27;9.40;;;;;;;9.19;94.10;100315.47;4979088;28;20162;-79
2021/10/31 07:58:03;;;;;;;13.68;9.45;;;;;;;9.42;93.76;100310.50;4988056;28;20363;-79
2021/10/31 08:00:29;;;;;;;14.88;7.88;;;;;;;9.61;92.98;100304.22;4980661;28;20034;-76
2021/10/31 08:02:55;;;;;;;13.88;7.43;;;;;;;9.75;92.21;100298.38;4987790;28;20034;-75
2021/10/31 08:05:23;;;;;;;13.32;5.32;;;;;;;9.97;90.93;100302.09;4977402;28;20057;-76
2021/10/31 08:07:48;;;;;;;10.10;6.43;;;;;;;10.21;89.88;100297.81;4991303;28;20042;-76
2021/10/31 08:10:14;;;;;;;8.45;4.88;;;;;;;10.40;88.96;100307.06;4987732;28;20034;-76
2021/10/31 08:12:39;;;;;;;11.15;4.65;;;;;;;10.67;87.76;100306.63;4983730;28;20104;-75
2021/10/31 08:15:05;;;;;;;9.45;4.13;;;;;;;10.80;86.75;100313.06;4992679;28;20267;-75
2021/10/31 08:17:31;;;;;;;9.13;3.58;;;;;;;10.66;86.18;100301.59;4996616;28;20026;-76
2021/10/31 08:19:56;;;;;;;7.90;4.35;;;;;;;10.77;86.22;100292.66;4996216;28;20503;-75
2021/10/31 08:22:22;;;;;;;8.13;4.28;;;;;;;10.93;85.31;100296.97;4999819;28;20490;-76
2021/10/31 08:24:47;;;;;;;8.80;3.40;;;;;;;11.12;84.60;100295.72;4992204;28;20541;-76
2021/10/31 08:27:15;;;;;;;5.15;3.35;;;;;;;11.38;83.31;100291.00;4989719;28;20557;-74
2021/10/31 08:29:41;;;;;;;7.53;3.28;;;;;;;11.51;82.46;100295.63;4974425;28;20087;-75
2021/10/31 08:32:07;;;;;;;9.55;3.05;;;;;;;11.69;82.66;100287.50;4989762;28;20030;-74
2021/10/31 08:34:33;;;;;;;4.72;2.50;;;;;;;11.70;82.17;100281.34;4977912;28;20038;-75
2021/10/31 08:36:59;;;;;;;4.63;2.42;;;;;;;11.71;81.71;100284.72;4992791;28;20080;-74
2021/10/31 08:39:24;;;;;;;6.20;2.85;;;;;;;11.66;82.75;100282.69;4986303;28;20084;-74
2021/10/31 08:41:50;;;;;;;5.95;2.55;;;;;;;11.68;82.20;100284.09;4976954;28;20043;-75
2021/10/31 08:44:16;;;;;;;4.65;2.40;;;;;;;11.70;81.61;100278.75;4975697;28;20037;-75
2021/10/31 08:46:41;;;;;;;6.13;2.70;;;;;;;11.65;81.86;100276.66;4978203;28;20031;-75
2021/10/31 08:49:07;;;;;;;7.45;2.45;;;;;;;11.72;82.02;100281.97;4981285;28;20423;-76
2021/10/31 08:51:33;;;;;;;3.95;2.38;;;;;;;11.75;81.70;100270.41;5018251;28;20057;-75
2021/10/31 08:53:59;;;;;;;3.45;2.08;;;;;;;11.84;81.33;100274.56;4981969;28;20061;-74
2021/10/31 08:56:25;;;;;;;4.65;2.13;;;;;;;11.73;81.00;100265.38;4992562;28;20107;-75
2021/10/31 08:58:51;;;;;;;3.58;2.05;;;;;;;11.77;81.38;100258.88;4960470;28;20038;-75
2021/10/31 09:01:17;;;;;;;3.47;2.00;;;;;;;11.60;82.94;100249.59;4988072;28;20030;-74
2021/10/31 09:03:44;;;;;;;4.85;2.30;;;;;;;11.59;82.50;100242.81;4982858;28;20054;-74
2021/10/31 09:06:11;;;;;;;2.85;1.70;;;;;;;11.54;82.13;100234.72;4993416;28;20084;-75
2021/10/31 09:08:38;;;;;;;4.60;1.85;;;;;;;11.57;82.26;100226.59;4990667;28;20049;-75
2021/10/31 09:11:04;;;;;;;6.53;2.53;;;;;;;11.65;81.64;100232.50;4993392;28;20109;-74
2021/10/31 09:13:29;;;;;;;6.22;1.95;;;;;;;11.65;82.43;100222.13;4982286;28;20046;-75
2021/10/31 09:15:55;;;;;;;2.03;1.50;;;;;;;11.77;82.29;100219.91;4978402;28;20041;-74
2021/10/31 09:18:21;;;;;;;4.80;1.63;;;;;;;11.96;81.45;100218.63;4963367;28;20034;-76
2021/10/31 09:20:47;;;;;;;5.45;2.05;;;;;;;12.06;80.07;100223.53;5068908;28;20549;-75
2021/10/31 09:23:13;;;;;;;3.40;1.90;;;;;;;12.19;80.92;100225.50;4983190;28;20034;-76
2021/10/31 09:25:39;;;;;;;4.97;1.45;;;;;;;12.31;79.78;100213.66;4977710;28;20035;-77
2021/10/31 09:28:06;;;;;;;5.35;2.03;;;;;;;12.42;80.24;100205.38;4996152;28;20036;-74
2021/10/31 09:30:38;;;;;;;4.65;2.08;;;;;;;12.48;79.22;100203.06;4987718;28;20030;-75
2021/10/31 09:33:04;;;;;;;2.45;1.80;;;;;;;12.57;78.92;100207.97;4972003;28;20031;-74
2021/10/31 09:35:31;;;;;;;4.13;1.60;;;;;;;12.63;79.08;100199.41;4976716;28;20462;-78
2021/10/31 09:38:00;;;;;;;4.57;1.55;;;;;;;12.62;79.29;100192.63;4990344;28;20034;-75
2021/10/31 09:40:26;;;;;;;4.95;1.45;;;;;;;12.60;79.64;100191.16;4977390;28;20503;-75
2021/10/31 09:42:54;;;;;;;3.67;1.30;;;;;;;12.71;78.79;100187.28;4989403;28;20073;-79
2021/10/31 09:45:21;;;;;;;2.58;1.52;;;;;;;12.67;79.62;100181.66;4972439;28;20050;-77
2021/10/31 09:47:59;;;;;;;4.05;1.50;;;;;;;12.71;80.46;100177.69;4963088;28;20430;-75
2021/10/31 09:50:27;;;;;;;3.67;1.50;;;;;;;12.74;80.27;100179.13;4976639;28;20154;-75
2021/10/31 09:52:53;;;;;;;3.33;1.33;;;;;;;12.81;79.96;100172.19;4994306;28;20039;-75
2021/10/31 09:55:19;;;;;;;1.55;1.17;;;;;;;12.80;79.66;100175.78;4986983;28;20108;-76
2021/10/31 09:57:44;;;;;;;3.55;1.50;;;;;;;12.98;79.98;100162.34;4996970;28;20543;-76
2021/10/31 10:00:11;;;;;;;4.38;1.40;;;;;;;13.10;79.23;100154.84;4989226;28;20506;-75
2021/10/31 10:05:03;;;;;;;3.40;1.20;;;;;;;13.22;78.84;100140.28;4989065;28;20129;-75
2021/10/31 10:07:30;;;;;;;3.20;1.38;;;;;;;13.24;79.46;100140.91;4981232;28;20490;-76
2021/10/31 10:09:56;;;;;;;2.88;1.20;;;;;;;13.36;80.12;100139.44;4981760;28;20057;-77
2021/10/31 10:12:24;;;;;;;3.90;1.20;;;;;;;13.39;79.85;100126.03;4972858;28;20109;-75
2021/10/31 10:15:08;;;;;;;5.28;1.58;;;;;;;13.57;79.84;100127.34;4971829;28;20091;-76
2021/10/31 10:17:48;;;;;;;2.88;1.25;;;;;;;13.61;78.50;100123.34;4986292;28;20084;-78
2021/10/31 10:20:14;;;;;;;3.17;1.63;;;;;;;13.62;79.81;100123.16;4973157;28;20050;-75
2021/10/31 10:22:40;;;;;;;4.70;1.60;;;;;;;13.71;79.32;100118.63;4985088;28;20449;-78
2021/10/31 10:25:06;;;;;;;3.80;1.73;;;;;;;13.88;78.39;100115.66;4980411;28;20127;-76
2021/10/31 10:27:36;;;;;;;6.07;1.90;;;;;;;14.06;78.39;100105.50;4983415;28;20173;-78
2021/10/31 10:30:12;;;;;;;4.07;1.85;;;;;;;14.05;78.93;100101.28;4993551;28;20030;-75
2021/10/31 10:32:51;;;;;;;3.55;1.95;;;;;;;14.05;78.24;100098.69;4990876;28;20068;-77
2021/10/31 10:35:19;;;;;;;4.07;1.92;;;;;;;14.09;78.55;100088.66;5005628;28;20091;-73
2021/10/31 10:37:44;;;;;;;4.30;1.88;;;;;;;14.10;79.26;100088.47;4991434;28;20125;-75
2021/10/31 10:40:17;;;;;;;5.80;2.45;;;;;;;14.08;78.72;100087.88;5006129;28;20031;-78
2021/10/31 10:43:12;;;;;;;4.97;1.70;;;;;;;14.01;79.72;100080.06;4984200;28;20045;-77
2021/10/31 10:45:39;;;;;;;6.25;2.17;;;;;;;14.08;79.15;100076.66;4990503;28;20509;-76
2021/10/31 10:48:08;;;;;;;6.25;2.25;;;;;;;14.07;79.29;100085.47;5009948;28;20030;-78
2021/10/31 10:50:39;;;;;;;5.78;2.45;;;;;;;13.97;80.35;100084.03;5000232;28;20144;-75
2021/10/31 10:53:16;;;;;;;3.25;1.98;;;;;;;13.99;80.62;100079.44;4975526;28;20030;-76
2021/10/31 10:55:42;;;;;;;10.45;3.35;;;;;;;13.99;80.88;100074.22;4984150;28;20034;-78
2021/10/31 10:58:11;;;;;;;4.75;2.20;;;;;;;13.99;81.03;100065.59;4989141;28;20049;-78
2021/10/31 11:00:38;;;;;;;8.30;2.60;;;;;;;14.00;80.81;100067.22;5005564;28;20046;-78
2021/10/31 11:03:13;;;;;;;7.30;2.67;;;;;;;14.02;80.86;100057.38;4985833;28;20042;-79
2021/10/31 11:05:41;;;;;;;5.68;2.65;;;;;;;13.99;81.39;100049.94;4987135;28;20038;-76
2021/10/31 11:08:24;;;;;;;5.00;2.85;;;;;;;13.98;81.38;100032.72;4991702;28;20486;-76
2021/10/31 11:10:55;;;;;;;8.23;2.88;;;;;;;14.07;81.00;100041.97;4978643;28;20607;-81
2021/10/31 11:13:25;;;;;;;9.30;3.40;;;;;;;14.08;81.69;100027.13;4987082;28;20042;-81
2021/10/31 11:15:52;;;;;;;6.20;3.33;;;;;;;14.04;81.17;100028.53;4984465;28;20029;-77
2021/10/31 11:18:18;;;;;;;10.75;3.30;;;;;;;14.02;81.38;100020.91;4986057;28;20049;-76
2021/10/31 11:20:46;;;;;;;8.57;3.72;;;;;;;14.08;81.33;100022.72;4994497;28;20038;-78
2021/10/31 11:23:16;;;;;;;3.90;2.60;;;;;;;14.06;82.08;100014.28;4985410;28;20034;-76
2021/10/31 11:25:44;;;;;;;9.73;3.08;;;;;;;14.18;82.05;100015.31;4982311;28;20041;-79
2021/10/31 11:28:13;;;;;;;8.25;3.38;;;;;;;14.20;81.87;100015.09;4980499;28;20494;-78
2021/10/31 11:30:41;;;;;;;6.53;4.07;;;;;;;14.35;81.75;100009.69;4988927;28;20105;-77
2021/10/31 11:33:09;;;;;;;10.30;4.40;;;;;;;14.30;81.51;99993.88;4984632;28;20043;-75
2021/10/31 11:35:35;;;;;;;18.35;4.13;;;;;;;14.32;82.33;99986.66;4990260;28;20287;-76